KBRG/BRG METAR and TAF weather

Enter ICAO airport designator
Station Type Date Time Source
KBRG METAR 2020/09/23 06:15 UTC NOAA

KBRG 230615Z AUTO 35008KT 10SM BKN110 22/00 A3019 RMK AO2 T02170001


Station Type Date Time Source
KBRG Decoded METAR 2020/09/23 06:15 UTC NOAA

Station name not available
Sep 23, 2020 - 02:15 AM EDT / 2020.09.23 0615 UTC
Wind: from the N (350 degrees) at 9 MPH (8 KT):0
Visibility: 10 mile(s):0
Sky conditions: mostly cloudy
Temperature: 71.1 F (21.7 C)
Dew Point: 32.2 F (0.1 C)
Relative Humidity: 23%
Pressure (altimeter): 30.19 in. Hg (1022 hPa)
ob: KBRG 230615Z AUTO 35008KT 10SM BKN110 22/00 A3019 RMK AO2 T02170001
cycle: 6

Station Type Date Time Source
KBRG TAF 2012/07/03 12:12 UTC NOAA

TAF SKBRG 031000Z 031212 VRB02KT 9999 FEW017 SCT080
TEMPO 0312/0317 11005KT VCTS - DZRAFEW015CB BKN070
TEMPO 0318/0323 TSRA FEW017CB BKN070
TEMPO 0400/0402 VCTS FEW020CB
TEMPO 0402/0406 -DZ SCT015CB
TEMPO 0408/0412 00000KT 5000 BCFG FEW005 TX23/0319Z TN10/0411Z

Example: see airport list